FLX306 SBJV-SBSP
Flight info
| Callsign | FLX306 |
|---|---|
| Flight time | 0h 38m |
| Altitude | 29000 |
| Route | DULIA UM400 KOXAG UM540 ANISE |
| Aircraft | B738/M-SDE2E3FGHIRWXY/LB1 |
Departure
| Time | 2026-05-07 20:06 |
|---|---|
| Airport | Lauro Carneiro de Loyola Airport (SBJV) |
Arrival
| Time | 2026-05-07 20:44 |
|---|---|
| Airport | Congonhas–Deputado Freitas Nobre Airport (SBSP) |
| Time | Latitude | Longitude | Altitude | Speed | Heading |
|---|---|---|---|---|---|
| 2026-05-07 19:45 | -26.22349 | -48.80246 | 20 ft | 0 kts | 129° |
| 2026-05-07 19:48 | -26.22338 | -48.80264 | 20 ft | 4 kts | 116° |
| 2026-05-07 19:48 | -26.22331 | -48.80291 | 21 ft | 4 kts | 79° |
| 2026-05-07 19:48 | -26.22340 | -48.80311 | 23 ft | 1 kts | 38° |
| 2026-05-07 19:54 | -26.22339 | -48.80310 | 20 ft | 1 kts | 38° |
| 2026-05-07 19:54 | -26.22315 | -48.80289 | 22 ft | 6 kts | 38° |
| 2026-05-07 19:54 | -26.22286 | -48.80261 | 20 ft | 5 kts | 51° |
| 2026-05-07 19:54 | -26.22285 | -48.80219 | 20 ft | 6 kts | 115° |
| 2026-05-07 19:55 | -26.22313 | -48.80178 | 20 ft | 7 kts | 129° |
| 2026-05-07 19:55 | -26.22330 | -48.80142 | 20 ft | 0 kts | 108° |
| 2026-05-07 19:58 | -26.22340 | -48.80104 | 20 ft | 7 kts | 107° |
| 2026-05-07 19:58 | -26.22352 | -48.80054 | 22 ft | 5 kts | 94° |
| 2026-05-07 19:58 | -26.22348 | -48.80046 | 20 ft | 0 kts | 53° |
| 2026-05-07 20:03 | -26.22338 | -48.80030 | 21 ft | 7 kts | 52° |
| 2026-05-07 20:03 | -26.22300 | -48.79990 | 23 ft | 11 kts | 52° |
| 2026-05-07 20:03 | -26.22347 | -48.79875 | 25 ft | 23 kts | 129° |
| 2026-05-07 20:03 | -26.22449 | -48.79734 | 22 ft | 23 kts | 129° |
| 2026-05-07 20:04 | -26.22547 | -48.79597 | 23 ft | 22 kts | 128° |
| 2026-05-07 20:04 | -26.22643 | -48.79464 | 24 ft | 22 kts | 129° |
| 2026-05-07 20:04 | -26.22736 | -48.79335 | 26 ft | 21 kts | 128° |
| 2026-05-07 20:04 | -26.22828 | -48.79210 | 27 ft | 20 kts | 134° |
| 2026-05-07 20:05 | -26.22901 | -48.79128 | 25 ft | 2 kts | 74° |
| 2026-05-07 20:05 | -26.22885 | -48.79132 | 29 ft | 3 kts | 310° |
| 2026-05-07 20:05 | -26.22885 | -48.79133 | 29 ft | 0 kts | 309° |
| 2026-05-07 20:05 | -26.22824 | -48.79213 | 26 ft | 50 kts | 310° |
| 2026-05-07 20:06 | -26.22426 | -48.79762 | 22 ft | 130 kts | 309° |
| 2026-05-07 20:06 | -26.21733 | -48.80718 | 267 ft | 173 kts | 309° |
| 2026-05-07 20:06 | -26.21010 | -48.81715 | 1351 ft | 155 kts | 311° |
| 2026-05-07 20:06 | -26.20357 | -48.82588 | 2402 ft | 144 kts | 323° |
| 2026-05-07 20:07 | -26.19373 | -48.82839 | 2793 ft | 164 kts | 16° |
| 2026-05-07 20:07 | -26.18286 | -48.82153 | 3058 ft | 196 kts | 30° |
| 2026-05-07 20:07 | -26.17070 | -48.81298 | 3404 ft | 214 kts | 30° |
| 2026-05-07 20:07 | -26.15788 | -48.80407 | 3968 ft | 220 kts | 28° |
| 2026-05-07 20:08 | -26.14463 | -48.79501 | 4587 ft | 226 kts | 27° |
| 2026-05-07 20:08 | -26.13117 | -48.78592 | 5380 ft | 226 kts | 26° |
| 2026-05-07 20:08 | -26.11776 | -48.77694 | 6260 ft | 224 kts | 25° |
| 2026-05-07 20:08 | -26.10447 | -48.76812 | 7014 ft | 225 kts | 26° |
| 2026-05-07 20:09 | -26.09087 | -48.75916 | 7769 ft | 228 kts | 26° |
| 2026-05-07 20:09 | -26.07717 | -48.75016 | 8595 ft | 230 kts | 26° |
| 2026-05-07 20:09 | -26.06337 | -48.74112 | 9438 ft | 231 kts | 27° |
| 2026-05-07 20:10 | -26.03541 | -48.72285 | 10840 ft | 236 kts | 27° |
| 2026-05-07 20:10 | -26.02126 | -48.71259 | 11278 ft | 254 kts | 40° |
| 2026-05-07 20:10 | -26.01151 | -48.69492 | 11492 ft | 287 kts | 69° |
| 2026-05-07 20:10 | -26.00738 | -48.67213 | 11679 ft | 314 kts | 77° |
| 2026-05-07 20:11 | -26.00406 | -48.64724 | 11845 ft | 337 kts | 78° |
| 2026-05-07 20:11 | -26.00042 | -48.62069 | 12000 ft | 358 kts | 77° |
| 2026-05-07 20:11 | -25.99644 | -48.59296 | 12138 ft | 377 kts | 77° |
| 2026-05-07 20:11 | -25.99212 | -48.56366 | 12383 ft | 390 kts | 77° |
| 2026-05-07 20:12 | -25.98764 | -48.53370 | 12866 ft | 395 kts | 77° |
| 2026-05-07 20:12 | -25.98311 | -48.50351 | 13449 ft | 397 kts | 77° |
| 2026-05-07 20:12 | -25.97854 | -48.47314 | 13966 ft | 400 kts | 77° |
| 2026-05-07 20:12 | -25.97393 | -48.44253 | 14431 ft | 403 kts | 77° |
| 2026-05-07 20:13 | -25.96927 | -48.41167 | 14897 ft | 406 kts | 77° |
| 2026-05-07 20:13 | -25.96350 | -48.38088 | 15347 ft | 407 kts | 69° |
| 2026-05-07 20:13 | -25.95232 | -48.35217 | 15836 ft | 406 kts | 61° |
| 2026-05-07 20:13 | -25.93974 | -48.32383 | 16304 ft | 409 kts | 60° |
| 2026-05-07 20:14 | -25.92714 | -48.29535 | 16773 ft | 413 kts | 61° |
| 2026-05-07 20:14 | -25.91464 | -48.26643 | 17218 ft | 416 kts | 62° |
| 2026-05-07 20:14 | -25.90230 | -48.23723 | 17669 ft | 419 kts | 62° |
| 2026-05-07 20:14 | -25.88996 | -48.20774 | 18109 ft | 423 kts | 62° |
| 2026-05-07 20:15 | -25.87764 | -48.17843 | 18458 ft | 426 kts | 61° |
| 2026-05-07 20:15 | -25.86170 | -48.15072 | 18754 ft | 426 kts | 47° |
| 2026-05-07 20:15 | -25.84212 | -48.12603 | 19108 ft | 429 kts | 45° |
| 2026-05-07 20:15 | -25.82190 | -48.10139 | 19427 ft | 433 kts | 45° |
| 2026-05-07 20:16 | -25.80150 | -48.07658 | 19739 ft | 437 kts | 45° |
| 2026-05-07 20:16 | -25.78097 | -48.05136 | 20057 ft | 441 kts | 45° |
| 2026-05-07 20:16 | -25.76043 | -48.02585 | 20377 ft | 445 kts | 45° |
| 2026-05-07 20:16 | -25.73980 | -48.00002 | 20680 ft | 449 kts | 46° |
| 2026-05-07 20:17 | -25.71903 | -47.97391 | 20973 ft | 453 kts | 46° |
| 2026-05-07 20:17 | -25.69812 | -47.94756 | 21290 ft | 457 kts | 46° |
| 2026-05-07 20:17 | -25.67705 | -47.92100 | 21586 ft | 460 kts | 46° |
| 2026-05-07 20:17 | -25.65581 | -47.89425 | 21868 ft | 464 kts | 46° |
| 2026-05-07 20:18 | -25.63434 | -47.86724 | 22167 ft | 468 kts | 46° |
| 2026-05-07 20:18 | -25.61302 | -47.84043 | 22431 ft | 471 kts | 45° |
| 2026-05-07 20:18 | -25.59128 | -47.81312 | 22718 ft | 474 kts | 46° |
| 2026-05-07 20:18 | -25.56936 | -47.78560 | 22992 ft | 477 kts | 46° |
| 2026-05-07 20:19 | -25.54735 | -47.75800 | 23240 ft | 481 kts | 46° |
| 2026-05-07 20:19 | -25.52509 | -47.73009 | 23474 ft | 484 kts | 46° |
| 2026-05-07 20:19 | -25.50274 | -47.70208 | 23710 ft | 486 kts | 46° |
| 2026-05-07 20:19 | -25.48031 | -47.67398 | 23976 ft | 488 kts | 46° |
| 2026-05-07 20:20 | -25.45780 | -47.64580 | 24228 ft | 489 kts | 46° |
| 2026-05-07 20:20 | -25.43521 | -47.61753 | 24472 ft | 491 kts | 46° |
| 2026-05-07 20:20 | -25.41252 | -47.58916 | 24701 ft | 493 kts | 46° |
| 2026-05-07 20:20 | -25.39227 | -47.55835 | 24891 ft | 500 kts | 60° |
| 2026-05-07 20:21 | -25.37722 | -47.52357 | 25175 ft | 502 kts | 64° |
| 2026-05-07 20:21 | -25.36277 | -47.48839 | 25414 ft | 503 kts | 64° |
| 2026-05-07 20:21 | -25.34820 | -47.45300 | 25616 ft | 506 kts | 64° |
| 2026-05-07 20:21 | -25.33340 | -47.41764 | 25831 ft | 508 kts | 63° |
| 2026-05-07 20:22 | -25.31836 | -47.38230 | 26072 ft | 509 kts | 63° |
| 2026-05-07 20:22 | -25.30310 | -47.34691 | 26322 ft | 509 kts | 63° |
| 2026-05-07 20:22 | -25.28812 | -47.31236 | 26867 ft | 502 kts | 63° |
| 2026-05-07 20:22 | -25.27295 | -47.27744 | 27598 ft | 493 kts | 62° |
| 2026-05-07 20:23 | -25.25839 | -47.24395 | 28301 ft | 485 kts | 62° |
| 2026-05-07 20:23 | -25.24385 | -47.21052 | 28857 ft | 482 kts | 62° |
| 2026-05-07 20:23 | -25.22924 | -47.17695 | 28890 ft | 488 kts | 62° |
| 2026-05-07 20:24 | -25.19947 | -47.10857 | 28931 ft | 499 kts | 62° |
| 2026-05-07 20:24 | -25.16898 | -47.03861 | 28924 ft | 509 kts | 62° |
| 2026-05-07 20:24 | -25.15100 | -47.00507 | 28910 ft | 506 kts | 51° |
| 2026-05-07 20:25 | -25.12813 | -46.97578 | 28917 ft | 502 kts | 41° |
| 2026-05-07 20:25 | -25.07284 | -46.93098 | 28928 ft | 495 kts | 27° |
| 2026-05-07 20:25 | -25.04283 | -46.91188 | 28165 ft | 501 kts | 27° |
| 2026-05-07 20:26 | -25.01272 | -46.89279 | 27384 ft | 498 kts | 27° |
| 2026-05-07 20:26 | -24.98275 | -46.87361 | 26507 ft | 498 kts | 27° |
| 2026-05-07 20:26 | -24.95281 | -46.85425 | 25597 ft | 499 kts | 27° |
| 2026-05-07 20:26 | -24.92287 | -46.83473 | 24719 ft | 499 kts | 28° |
| 2026-05-07 20:27 | -24.89319 | -46.81528 | 24025 ft | 494 kts | 28° |
| 2026-05-07 20:27 | -24.86376 | -46.79597 | 23316 ft | 490 kts | 28° |
| 2026-05-07 20:27 | -24.83471 | -46.77691 | 22676 ft | 481 kts | 28° |
| 2026-05-07 20:27 | -24.80594 | -46.75807 | 21973 ft | 476 kts | 28° |
| 2026-05-07 20:28 | -24.77775 | -46.73963 | 21228 ft | 471 kts | 28° |
| 2026-05-07 20:28 | -24.74989 | -46.72143 | 20754 ft | 459 kts | 28° |
| 2026-05-07 20:28 | -24.72239 | -46.70349 | 19962 ft | 458 kts | 29° |
| 2026-05-07 20:28 | -24.69537 | -46.68586 | 19336 ft | 450 kts | 29° |
| 2026-05-07 20:29 | -24.66855 | -46.66837 | 18843 ft | 442 kts | 29° |
| 2026-05-07 20:29 | -24.64263 | -46.65148 | 18077 ft | 440 kts | 29° |
| 2026-05-07 20:29 | -24.61647 | -46.63485 | 17618 ft | 427 kts | 26° |
| 2026-05-07 20:29 | -24.58828 | -46.62514 | 16711 ft | 427 kts | 6° |
| 2026-05-07 20:30 | -24.55912 | -46.62375 | 16347 ft | 410 kts | 1° |
| 2026-05-07 20:30 | -24.53106 | -46.62359 | 15946 ft | 399 kts | 0° |
| 2026-05-07 20:30 | -24.50326 | -46.62373 | 15592 ft | 402 kts | 360° |
| 2026-05-07 20:30 | -24.47492 | -46.62396 | 15216 ft | 407 kts | 0° |
| 2026-05-07 20:31 | -24.44663 | -46.62418 | 14844 ft | 406 kts | 0° |
| 2026-05-07 20:31 | -24.41844 | -46.62436 | 14464 ft | 402 kts | 0° |
| 2026-05-07 20:31 | -24.39054 | -46.62449 | 14086 ft | 400 kts | 0° |
| 2026-05-07 20:31 | -24.36281 | -46.62460 | 13705 ft | 397 kts | 1° |
| 2026-05-07 20:32 | -24.33523 | -46.62468 | 13299 ft | 395 kts | 1° |
| 2026-05-07 20:32 | -24.30820 | -46.62475 | 12923 ft | 389 kts | 0° |
| 2026-05-07 20:32 | -24.28141 | -46.62482 | 12552 ft | 380 kts | 0° |
| 2026-05-07 20:32 | -24.25538 | -46.62489 | 12205 ft | 370 kts | 0° |
| 2026-05-07 20:33 | -24.22994 | -46.62496 | 11869 ft | 361 kts | 0° |
| 2026-05-07 20:33 | -24.20504 | -46.62502 | 11537 ft | 353 kts | 0° |
| 2026-05-07 20:33 | -24.18068 | -46.62509 | 11224 ft | 345 kts | 360° |
| 2026-05-07 20:33 | -24.15694 | -46.62515 | 10906 ft | 338 kts | 360° |
| 2026-05-07 20:34 | -24.13361 | -46.62521 | 10596 ft | 330 kts | 359° |
| 2026-05-07 20:34 | -24.11097 | -46.62527 | 10296 ft | 320 kts | 359° |
| 2026-05-07 20:34 | -24.08896 | -46.62532 | 10000 ft | 310 kts | 359° |
| 2026-05-07 20:34 | -24.06788 | -46.62534 | 9901 ft | 292 kts | 359° |
| 2026-05-07 20:35 | -24.04817 | -46.62545 | 9873 ft | 275 kts | 359° |
| 2026-05-07 20:35 | -24.02959 | -46.62550 | 9783 ft | 261 kts | 359° |
| 2026-05-07 20:35 | -24.01169 | -46.62552 | 9456 ft | 255 kts | 359° |
| 2026-05-07 20:35 | -23.99377 | -46.62558 | 8983 ft | 258 kts | 359° |
| 2026-05-07 20:36 | -23.97589 | -46.62562 | 8494 ft | 256 kts | 359° |
| 2026-05-07 20:36 | -23.95832 | -46.62567 | 8242 ft | 251 kts | 359° |
| 2026-05-07 20:36 | -23.94111 | -46.62573 | 8050 ft | 250 kts | 359° |
| 2026-05-07 20:36 | -23.92348 | -46.62579 | 7735 ft | 252 kts | 359° |
| 2026-05-07 20:37 | -23.90652 | -46.62583 | 7658 ft | 234 kts | 359° |
| 2026-05-07 20:37 | -23.89078 | -46.62586 | 7575 ft | 219 kts | 359° |
| 2026-05-07 20:37 | -23.87534 | -46.62592 | 7176 ft | 227 kts | 359° |
| 2026-05-07 20:37 | -23.85998 | -46.62350 | 6913 ft | 223 kts | 24° |
| 2026-05-07 20:38 | -23.85146 | -46.61757 | 6809 ft | 217 kts | 34° |
| 2026-05-07 20:38 | -23.83817 | -46.60143 | 6503 ft | 209 kts | 48° |
| 2026-05-07 20:38 | -23.83240 | -46.59325 | 6377 ft | 201 kts | 47° |
| 2026-05-07 20:38 | -23.82402 | -46.58152 | 6187 ft | 190 kts | 47° |
| 2026-05-07 20:39 | -23.81334 | -46.56669 | 6011 ft | 187 kts | 47° |
| 2026-05-07 20:39 | -23.80749 | -46.55954 | 5968 ft | 185 kts | 33° |
| 2026-05-07 20:39 | -23.79627 | -46.55398 | 5977 ft | 177 kts | 10° |
| 2026-05-07 20:39 | -23.78358 | -46.55310 | 5593 ft | 188 kts | 352° |
| 2026-05-07 20:40 | -23.77144 | -46.55715 | 5328 ft | 181 kts | 332° |
| 2026-05-07 20:40 | -23.76082 | -46.56368 | 5182 ft | 173 kts | 331° |
| 2026-05-07 20:40 | -23.75053 | -46.57044 | 5010 ft | 171 kts | 330° |
| 2026-05-07 20:40 | -23.74074 | -46.57716 | 4939 ft | 161 kts | 329° |
| 2026-05-07 20:41 | -23.73109 | -46.58386 | 4771 ft | 163 kts | 329° |
| 2026-05-07 20:41 | -23.72186 | -46.59028 | 4561 ft | 149 kts | 329° |
| 2026-05-07 20:41 | -23.71345 | -46.59614 | 4381 ft | 138 kts | 329° |
| 2026-05-07 20:41 | -23.70528 | -46.60180 | 4209 ft | 141 kts | 329° |
| 2026-05-07 20:42 | -23.69708 | -46.60750 | 4035 ft | 139 kts | 329° |
| 2026-05-07 20:42 | -23.68898 | -46.61313 | 3859 ft | 138 kts | 329° |
| 2026-05-07 20:42 | -23.68095 | -46.61871 | 3679 ft | 139 kts | 329° |
| 2026-05-07 20:42 | -23.67280 | -46.62438 | 3517 ft | 140 kts | 329° |
| 2026-05-07 20:43 | -23.66455 | -46.63011 | 3339 ft | 141 kts | 329° |
| 2026-05-07 20:43 | -23.65622 | -46.63590 | 3139 ft | 142 kts | 329° |
| 2026-05-07 20:43 | -23.64790 | -46.64168 | 2959 ft | 142 kts | 329° |
| 2026-05-07 20:43 | -23.63969 | -46.64743 | 2778 ft | 136 kts | 329° |
| 2026-05-07 20:44 | -23.63216 | -46.65268 | 2628 ft | 118 kts | 330° |
| 2026-05-07 20:44 | -23.62583 | -46.65703 | 2604 ft | 89 kts | 328° |
| 2026-05-07 20:44 | -23.62195 | -46.65970 | 2598 ft | 33 kts | 326° |
| 2026-05-07 20:44 | -23.62075 | -46.66058 | 2594 ft | 14 kts | 321° |
| 2026-05-07 20:45 | -23.62064 | -46.66119 | 2595 ft | 7 kts | 237° |
| 2026-05-07 20:45 | -23.62100 | -46.66127 | 2592 ft | 0 kts | 164° |
| 2026-05-07 20:45 | -23.62102 | -46.66126 | 2589 ft | 3 kts | 164° |
| 2026-05-07 20:45 | -23.62147 | -46.66103 | 2591 ft | 9 kts | 148° |
| 2026-05-07 20:46 | -23.62202 | -46.66065 | 2594 ft | 9 kts | 148° |
| 2026-05-07 20:46 | -23.62262 | -46.66044 | 2599 ft | 9 kts | 171° |
| 2026-05-07 20:46 | -23.62322 | -46.66033 | 2599 ft | 9 kts | 163° |
| 2026-05-07 20:46 | -23.62364 | -46.66019 | 2599 ft | 4 kts | 197° |
| 2026-05-07 20:47 | -23.62383 | -46.66041 | 2599 ft | 4 kts | 229° |
| 2026-05-07 20:47 | -23.62388 | -46.66047 | 2599 ft | 0 kts | 228° |